createdAt,value
2017-06-10T00:01:57.608Z,2.33
2017-06-10T00:04:23.783Z,1.85
2017-06-10T00:06:49.992Z,1.70
2017-06-10T00:09:16.264Z,2.00
2017-06-10T00:11:42.462Z,1.92
2017-06-10T00:14:08.645Z,2.05
2017-06-10T00:16:34.885Z,2.10
2017-06-10T00:19:01.068Z,2.40
2017-06-10T00:21:27.271Z,2.58
2017-06-10T00:23:54.484Z,2.40
2017-06-10T00:26:20.661Z,2.00
2017-06-10T00:28:46.840Z,1.80
2017-06-10T00:31:13.051Z,1.98
2017-06-10T00:33:39.223Z,1.92
2017-06-10T00:36:06.217Z,1.75
2017-06-10T00:38:32.447Z,1.90
2017-06-10T00:40:58.605Z,2.12
2017-06-10T00:43:24.772Z,1.70
2017-06-10T00:45:50.975Z,1.65
2017-06-10T00:48:17.925Z,1.50
2017-06-10T00:50:44.845Z,2.85
2017-06-10T00:53:11.052Z,2.12
2017-06-10T00:55:37.228Z,2.60
2017-06-10T00:58:04.188Z,1.87
2017-06-10T01:00:30.389Z,1.50
2017-06-10T01:02:57.307Z,5.75
2017-06-10T01:05:23.498Z,1.77
2017-06-10T01:07:49.716Z,1.87
2017-06-10T01:10:15.903Z,2.37
2017-06-10T01:12:42.151Z,2.05
2017-06-10T01:15:09.135Z,1.85
2017-06-10T01:17:35.337Z,1.70
2017-06-10T01:20:01.523Z,1.60
2017-06-10T01:22:27.813Z,1.95
2017-06-10T01:24:53.992Z,2.40
2017-06-10T01:27:20.195Z,2.10
2017-06-10T01:29:46.408Z,2.30
2017-06-10T01:32:12.610Z,2.00
2017-06-10T01:34:38.804Z,1.70
2017-06-10T01:37:05.755Z,2.22
2017-06-10T01:39:32.736Z,1.95
2017-06-10T01:41:58.946Z,1.92
2017-06-10T01:44:25.164Z,3.00
2017-06-10T01:46:52.116Z,2.10
2017-06-10T01:49:18.297Z,2.30
2017-06-10T01:51:44.496Z,2.67
2017-06-10T01:54:10.720Z,2.40
2017-06-10T01:56:36.909Z,2.20
2017-06-10T01:59:03.107Z,3.05
2017-06-10T02:01:29.308Z,2.72
2017-06-10T02:03:55.499Z,2.50
2017-06-10T02:06:22.437Z,2.80
2017-06-10T02:08:49.379Z,2.78
2017-06-10T02:11:16.292Z,2.40
2017-06-10T02:13:42.463Z,2.00
2017-06-10T02:16:08.713Z,2.20
2017-06-10T02:18:34.909Z,2.50
2017-06-10T02:21:01.079Z,2.55
2017-06-10T02:23:27.300Z,2.83
2017-06-10T02:25:53.508Z,2.58
2017-06-10T02:28:19.685Z,8.65
2017-06-10T02:30:45.870Z,2.65
2017-06-10T02:33:12.060Z,2.70
2017-06-10T02:35:39.040Z,4.07
2017-06-10T02:38:05.262Z,3.03
2017-06-10T02:40:31.460Z,2.83
2017-06-10T02:42:58.375Z,2.30
2017-06-10T02:45:26.398Z,2.58
2017-06-10T02:47:52.600Z,2.42
2017-06-10T02:50:19.520Z,2.45
2017-06-10T02:52:45.732Z,2.90
2017-06-10T02:55:11.908Z,3.10
2017-06-10T02:57:38.084Z,3.62
2017-06-10T03:00:04.308Z,3.87
2017-06-10T03:02:30.528Z,3.78
2017-06-10T03:04:56.699Z,4.03
2017-06-10T03:07:22.904Z,4.32
2017-06-10T03:09:49.102Z,4.82
2017-06-10T03:12:15.357Z,4.40
2017-06-10T03:14:41.565Z,6.22
2017-06-10T03:17:07.744Z,4.22
2017-06-10T03:19:33.936Z,5.35
2017-06-10T03:22:00.216Z,4.50
2017-06-10T03:24:26.421Z,4.50
2017-06-10T03:26:53.341Z,5.82
2017-06-10T03:29:20.384Z,4.80
2017-06-10T03:31:46.615Z,5.95
2017-06-10T03:34:12.801Z,5.60
2017-06-10T03:36:39.015Z,4.82
2017-06-10T03:39:05.204Z,6.30
2017-06-10T03:41:31.371Z,5.07
2017-06-10T03:43:57.584Z,5.43
2017-06-10T03:46:23.802Z,6.18
2017-06-10T03:48:49.977Z,6.43
2017-06-10T03:51:16.180Z,6.72
2017-06-10T03:53:42.365Z,7.70
2017-06-10T03:56:08.548Z,6.50
2017-06-10T03:58:34.788Z,6.82
2017-06-10T04:01:01.023Z,5.72
2017-06-10T04:03:27.213Z,5.75
2017-06-10T04:05:53.404Z,5.07
2017-06-10T04:08:19.585Z,5.78
2017-06-10T04:10:45.769Z,6.45
2017-06-10T04:13:11.973Z,5.60
2017-06-10T04:15:38.160Z,5.50
2017-06-10T04:18:04.368Z,4.35
2017-06-10T04:20:30.560Z,4.15
2017-06-10T04:22:56.787Z,5.25
2017-06-10T04:25:22.984Z,4.80
2017-06-10T04:27:49.160Z,4.05
2017-06-10T04:30:16.115Z,4.62
2017-06-10T04:32:42.296Z,4.35
2017-06-10T04:35:08.484Z,3.70
2017-06-10T04:37:34.692Z,4.20
2017-06-10T04:40:01.608Z,4.05
2017-06-10T04:42:27.811Z,3.78
2017-06-10T04:44:54.008Z,5.03
2017-06-10T04:47:20.181Z,3.50
2017-06-10T04:49:46.459Z,3.40
2017-06-10T04:52:12.654Z,3.55
2017-06-10T04:54:38.824Z,3.67
2017-06-10T04:57:05.343Z,3.30
2017-06-10T04:59:31.531Z,3.72
2017-06-10T05:01:58.049Z,3.00
2017-06-10T05:04:24.340Z,3.20
2017-06-10T05:06:50.556Z,2.75
2017-06-10T05:09:16.805Z,3.20
2017-06-10T05:11:43.045Z,3.17
2017-06-10T05:14:09.301Z,3.08
2017-06-10T05:16:35.509Z,2.65
2017-06-10T05:19:01.706Z,2.85
2017-06-10T05:21:27.950Z,3.00
2017-06-10T05:23:54.139Z,3.10
2017-06-10T05:26:21.071Z,5.30
2017-06-10T05:28:47.280Z,2.60
2017-06-10T05:31:13.483Z,2.92
2017-06-10T05:33:39.681Z,2.78
2017-06-10T05:36:06.690Z,2.87
2017-06-10T05:38:32.888Z,2.85
2017-06-10T05:40:59.108Z,2.80
2017-06-10T05:43:25.327Z,5.72
2017-06-10T05:45:51.597Z,2.50
2017-06-10T05:48:17.889Z,2.37
2017-06-10T05:50:44.071Z,3.92
2017-06-10T05:53:10.274Z,2.30
2017-06-10T05:55:36.522Z,2.50
2017-06-10T05:58:02.756Z,3.28
2017-06-10T06:00:29.115Z,2.08
2017-06-10T06:02:55.530Z,1.80
2017-06-10T06:05:22.558Z,1.50
2017-06-10T06:07:48.808Z,2.00
2017-06-10T06:10:15.091Z,2.00
2017-06-10T06:12:41.355Z,2.40
2017-06-10T06:15:07.586Z,2.95
2017-06-10T06:17:33.834Z,1.90
2017-06-10T06:20:00.044Z,1.52
2017-06-10T06:22:27.028Z,2.75
2017-06-10T06:24:53.280Z,2.75
2017-06-10T06:27:19.496Z,2.72
2017-06-10T06:29:45.714Z,4.37
2017-06-10T06:32:11.999Z,4.10
2017-06-10T06:34:38.978Z,2.12
2017-06-10T06:37:05.196Z,2.20
2017-06-10T06:39:31.498Z,2.30
2017-06-10T06:41:58.425Z,2.20
2017-06-10T06:44:24.612Z,3.12
2017-06-10T06:46:50.848Z,2.72
2017-06-10T06:49:17.060Z,2.22
2017-06-10T06:51:43.254Z,3.28
2017-06-10T06:54:09.481Z,2.30
2017-06-10T06:56:35.665Z,2.75
2017-06-10T06:59:01.844Z,2.00
2017-06-10T07:01:28.102Z,3.50
2017-06-10T07:03:54.308Z,4.28
2017-06-10T07:06:20.501Z,3.65
2017-06-10T07:08:47.139Z,3.95
2017-06-10T07:11:14.084Z,3.55
2017-06-10T07:13:40.267Z,2.55
2017-06-10T07:16:06.496Z,3.90
2017-06-10T07:18:32.695Z,4.43
2017-06-10T07:20:58.916Z,4.15
2017-06-10T07:23:25.149Z,3.22
2017-06-10T07:25:51.344Z,2.15
2017-06-10T07:28:17.529Z,3.15
2017-06-10T07:30:43.731Z,3.45
2017-06-10T07:33:09.924Z,4.53
2017-06-10T07:35:36.160Z,3.65
2017-06-10T07:38:02.341Z,2.30
2017-06-10T07:40:28.556Z,2.58
2017-06-10T07:42:54.804Z,2.10
2017-06-10T07:45:20.985Z,3.30
2017-06-10T07:47:47.932Z,3.30
2017-06-10T07:50:14.961Z,1.98
2017-06-10T07:52:41.152Z,2.72
2017-06-10T07:55:07.345Z,4.45
2017-06-10T07:57:33.569Z,1.90
2017-06-10T07:59:59.812Z,3.28
2017-06-10T08:02:26.172Z,2.30
2017-06-10T08:04:52.402Z,5.18
2017-06-10T08:07:18.616Z,3.00
2017-06-10T08:09:44.820Z,2.65
2017-06-10T08:12:11.069Z,2.95
2017-06-10T08:14:37.256Z,3.10
2017-06-10T08:17:03.465Z,3.35
2017-06-10T08:19:30.473Z,2.67
